createdAt,value
2023-01-26T00:00:22.488Z,25.48
2023-01-26T00:01:22.448Z,25.50
2023-01-26T00:02:22.438Z,25.49
2023-01-26T00:03:22.430Z,25.49
2023-01-26T00:04:22.382Z,25.48
2023-01-26T00:05:22.347Z,25.48
2023-01-26T00:06:22.321Z,25.52
2023-01-26T00:07:22.301Z,25.50
2023-01-26T00:08:22.274Z,25.50
2023-01-26T00:09:22.227Z,25.50
2023-01-26T00:10:22.193Z,25.51
2023-01-26T00:11:22.185Z,25.50
2023-01-26T00:12:22.138Z,25.52
2023-01-26T00:13:22.122Z,25.50
2023-01-26T00:14:22.106Z,25.52
2023-01-26T00:15:22.061Z,25.53
2023-01-26T00:16:22.143Z,25.53
2023-01-26T00:17:21.997Z,25.55
2023-01-26T00:18:21.970Z,25.56
2023-01-26T00:19:21.963Z,25.56
2023-01-26T00:20:21.922Z,25.58
2023-01-26T00:21:21.897Z,25.57
2023-01-26T00:22:21.861Z,25.59
2023-01-26T00:23:21.834Z,25.58
2023-01-26T00:24:21.866Z,25.58
2023-01-26T00:25:21.776Z,25.60
2023-01-26T00:26:21.747Z,25.59
2023-01-26T00:27:21.723Z,25.61
2023-01-26T00:28:21.703Z,25.60
2023-01-26T00:29:21.664Z,25.58
2023-01-26T00:30:21.680Z,25.58
2023-01-26T00:31:21.651Z,25.62
2023-01-26T00:32:21.550Z,25.62
2023-01-26T00:33:21.531Z,25.61
2023-01-26T00:34:21.477Z,25.61
2023-01-26T00:35:21.468Z,25.61
2023-01-26T00:36:21.421Z,25.61
2023-01-26T00:37:21.398Z,25.63
2023-01-26T00:38:21.344Z,25.63
2023-01-26T00:39:21.316Z,25.63
2023-01-26T00:40:21.277Z,25.64
2023-01-26T00:41:21.249Z,25.64
2023-01-26T00:42:21.222Z,25.63
2023-01-26T00:43:21.193Z,25.66
2023-01-26T00:44:21.155Z,25.64
2023-01-26T00:45:21.117Z,25.63
2023-01-26T00:46:21.102Z,25.64
2023-01-26T00:47:21.045Z,25.64
2023-01-26T00:48:23.535Z,25.65
2023-01-26T00:49:20.992Z,25.65
2023-01-26T00:50:20.954Z,25.63
2023-01-26T00:51:20.908Z,25.64
2023-01-26T00:52:20.888Z,25.67
2023-01-26T00:53:20.852Z,25.68
2023-01-26T00:54:20.817Z,25.68
2023-01-26T00:55:20.791Z,25.69
2023-01-26T00:56:20.756Z,25.68
2023-01-26T00:57:20.724Z,25.66
2023-01-26T00:58:20.707Z,25.67
2023-01-26T00:59:20.682Z,25.68
2023-01-26T01:00:20.632Z,25.70
2023-01-26T01:01:20.594Z,25.69
2023-01-26T01:02:20.577Z,25.70
2023-01-26T01:03:21.294Z,25.68
2023-01-26T01:04:20.575Z,25.69
2023-01-26T01:05:20.518Z,25.71
2023-01-26T01:06:20.500Z,25.71
2023-01-26T01:07:20.427Z,25.71
2023-01-26T01:08:20.404Z,25.72
2023-01-26T01:09:20.389Z,25.74
2023-01-26T01:10:20.336Z,25.76
2023-01-26T01:11:20.314Z,25.74
2023-01-26T01:12:20.282Z,25.74
2023-01-26T01:13:20.264Z,25.72
2023-01-26T01:14:20.221Z,25.75
2023-01-26T01:15:20.187Z,25.77
2023-01-26T01:16:20.204Z,25.74
2023-01-26T01:17:20.148Z,25.75
2023-01-26T01:18:20.085Z,25.76
2023-01-26T01:19:20.064Z,25.77
2023-01-26T01:20:20.060Z,25.77
2023-01-26T01:21:20.007Z,25.78
2023-01-26T01:22:19.956Z,25.78
2023-01-26T01:23:19.969Z,25.78
2023-01-26T01:24:19.949Z,25.79
2023-01-26T01:25:19.872Z,25.78
2023-01-26T01:26:19.878Z,25.79
2023-01-26T01:27:19.821Z,25.79
2023-01-26T01:28:19.809Z,25.83
2023-01-26T01:29:19.761Z,25.81
2023-01-26T01:30:19.732Z,25.80
2023-01-26T01:31:19.778Z,25.81
2023-01-26T01:32:19.685Z,25.81
2023-01-26T01:33:19.649Z,25.80
2023-01-26T01:34:19.614Z,25.82
2023-01-26T01:35:19.582Z,25.81
2023-01-26T01:36:19.563Z,25.81
2023-01-26T01:37:19.503Z,25.82
2023-01-26T01:38:19.477Z,25.83
2023-01-26T01:39:19.458Z,25.83
2023-01-26T01:40:19.421Z,25.85
2023-01-26T01:41:19.408Z,25.82
2023-01-26T01:42:19.370Z,25.83
2023-01-26T01:43:19.335Z,25.85
2023-01-26T01:44:19.322Z,25.85
2023-01-26T01:45:19.270Z,25.87
2023-01-26T01:46:19.266Z,25.87
2023-01-26T01:47:19.230Z,25.85
2023-01-26T01:48:19.209Z,25.84
2023-01-26T01:49:19.173Z,25.86
2023-01-26T01:50:19.156Z,25.85
2023-01-26T01:51:19.113Z,25.86
2023-01-26T01:52:19.079Z,25.86
2023-01-26T01:53:19.084Z,25.87
2023-01-26T01:54:19.029Z,25.87
2023-01-26T01:55:19.025Z,25.88
2023-01-26T01:56:19.018Z,25.89
2023-01-26T01:57:19.016Z,25.91
2023-01-26T01:58:18.916Z,25.91
2023-01-26T01:59:18.890Z,25.92
2023-01-26T02:00:18.866Z,25.90
2023-01-26T02:01:18.843Z,25.90
2023-01-26T02:02:18.965Z,25.89
2023-01-26T02:03:18.795Z,25.90
2023-01-26T02:04:18.745Z,25.91
2023-01-26T02:05:18.723Z,25.90
2023-01-26T02:06:18.683Z,25.92
2023-01-26T02:07:18.656Z,25.90
2023-01-26T02:08:18.616Z,25.90
2023-01-26T02:09:18.582Z,25.90
2023-01-26T02:10:18.554Z,25.91
2023-01-26T02:11:18.519Z,25.91
2023-01-26T02:12:18.489Z,25.92
2023-01-26T02:13:18.471Z,25.92
2023-01-26T02:14:18.433Z,25.91
2023-01-26T02:15:18.408Z,25.93
2023-01-26T02:16:18.386Z,25.92
2023-01-26T02:17:18.350Z,25.94
2023-01-26T02:18:18.315Z,25.93
2023-01-26T02:19:18.294Z,25.96
2023-01-26T02:20:18.260Z,25.95
2023-01-26T02:21:18.219Z,25.94
2023-01-26T02:22:18.182Z,25.95
2023-01-26T02:23:18.164Z,25.95
2023-01-26T02:24:18.167Z,25.97
2023-01-26T02:25:18.096Z,25.96
2023-01-26T02:26:18.065Z,25.96
2023-01-26T02:27:18.040Z,25.96
2023-01-26T02:28:18.003Z,25.97
2023-01-26T02:29:17.977Z,25.95
2023-01-26T02:30:17.952Z,25.99
2023-01-26T02:31:18.034Z,25.96
2023-01-26T02:32:17.883Z,25.99
2023-01-26T02:33:17.867Z,25.99
2023-01-26T02:34:17.839Z,25.98
2023-01-26T02:35:17.837Z,26.01
2023-01-26T02:36:17.786Z,26.00
2023-01-26T02:37:17.761Z,25.98
2023-01-26T02:38:17.723Z,26.00
2023-01-26T02:39:17.700Z,26.02
2023-01-26T02:40:17.671Z,26.00
2023-01-26T02:41:17.649Z,26.00
2023-01-26T02:42:17.605Z,26.02
2023-01-26T02:43:17.580Z,25.99
2023-01-26T02:44:17.549Z,25.98
2023-01-26T02:45:17.529Z,26.01
2023-01-26T02:46:17.540Z,26.00
2023-01-26T02:47:17.471Z,26.00
2023-01-26T02:48:17.463Z,26.02
2023-01-26T02:49:17.418Z,25.99
2023-01-26T02:50:17.411Z,25.74
2023-01-26T02:51:17.389Z,25.38
2023-01-26T02:52:17.341Z,24.58
2023-01-26T02:53:17.328Z,23.61
2023-01-26T02:54:17.312Z,23.73
2023-01-26T02:55:17.297Z,23.92
2023-01-26T02:56:17.264Z,23.84
2023-01-26T02:57:17.227Z,23.64
2023-01-26T02:58:17.224Z,22.43
2023-01-26T02:59:17.195Z,21.99
2023-01-26T03:00:17.172Z,21.85
2023-01-26T03:01:17.139Z,21.99
2023-01-26T03:02:17.168Z,21.85
2023-01-26T03:03:17.088Z,21.21
2023-01-26T03:04:17.071Z,21.18
2023-01-26T03:05:17.029Z,20.81
2023-01-26T03:06:17.014Z,20.66
2023-01-26T03:07:16.970Z,20.65
2023-01-26T03:08:16.940Z,20.95
2023-01-26T03:09:16.904Z,20.96
2023-01-26T03:10:16.891Z,20.58
2023-01-26T03:11:16.868Z,20.49
2023-01-26T03:12:16.836Z,20.15
2023-01-26T03:13:16.790Z,20.03
2023-01-26T03:14:16.779Z,19.83
2023-01-26T03:15:16.779Z,20.08
2023-01-26T03:16:16.789Z,20.16
2023-01-26T03:17:16.698Z,20.21
2023-01-26T03:18:16.672Z,20.18
2023-01-26T03:19:16.635Z,19.86
2023-01-26T03:20:16.616Z,19.63
2023-01-26T03:21:16.626Z,19.40
2023-01-26T03:22:16.562Z,19.13
2023-01-26T03:23:16.539Z,19.48
2023-01-26T03:24:17.439Z,19.65
2023-01-26T03:25:16.493Z,19.67
2023-01-26T03:26:16.479Z,19.79
2023-01-26T03:27:16.457Z,19.40
2023-01-26T03:28:16.431Z,19.09
2023-01-26T03:29:16.392Z,19.07
2023-01-26T03:30:16.440Z,18.78
2023-01-26T03:31:16.374Z,19.02
2023-01-26T03:32:16.318Z,19.16
2023-01-26T03:33:16.285Z,19.24
2023-01-26T03:34:16.260Z,19.28
2023-01-26T03:35:16.219Z,19.37
2023-01-26T03:36:16.202Z,19.07
2023-01-26T03:37:16.173Z,18.78
2023-01-26T03:38:16.123Z,18.63
2023-01-26T03:39:16.101Z,18.81
2023-01-26T03:40:16.108Z,18.82
2023-01-26T03:41:16.070Z,18.92
2023-01-26T03:42:16.013Z,18.98
2023-01-26T03:43:15.992Z,18.99
2023-01-26T03:44:15.968Z,18.71
2023-01-26T03:45:15.936Z,18.70
2023-01-26T03:46:15.900Z,18.82
2023-01-26T03:47:15.882Z,18.78
2023-01-26T03:48:15.846Z,18.73
2023-01-26T03:49:15.808Z,18.61
2023-01-26T03:50:15.780Z,18.69
2023-01-26T03:51:15.784Z,18.69
2023-01-26T03:52:15.726Z,18.71
2023-01-26T03:53:15.693Z,18.80
2023-01-26T03:54:15.701Z,18.55
2023-01-26T03:55:15.634Z,18.56
2023-01-26T03:56:15.619Z,18.56
2023-01-26T03:57:15.587Z,18.48
2023-01-26T03:58:15.552Z,18.42
2023-01-26T03:59:15.618Z,18.41
2023-01-26T04:00:15.500Z,18.52
2023-01-26T04:01:15.502Z,18.49
2023-01-26T04:02:15.509Z,18.50
2023-01-26T04:03:15.435Z,18.40
2023-01-26T04:04:15.432Z,18.33
2023-01-26T04:05:15.369Z,18.32
2023-01-26T04:06:16.792Z,18.14
2023-01-26T04:07:15.342Z,18.15
2023-01-26T04:08:15.297Z,18.08
2023-01-26T04:09:15.269Z,18.20
2023-01-26T04:10:15.290Z,18.23
2023-01-26T04:11:15.233Z,18.20
2023-01-26T04:12:15.201Z,18.16
2023-01-26T04:13:15.170Z,18.15
2023-01-26T04:14:15.138Z,18.18
2023-01-26T04:15:15.114Z,17.98
2023-01-26T04:16:15.149Z,18.05
2023-01-26T04:17:15.064Z,17.95
2023-01-26T04:18:15.042Z,18.04
2023-01-26T04:19:15.007Z,18.02
2023-01-26T04:20:14.982Z,18.03
2023-01-26T04:21:14.965Z,18.03
2023-01-26T04:22:14.935Z,18.08
2023-01-26T04:23:14.910Z,18.01
2023-01-26T04:24:16.959Z,17.92
2023-01-26T04:25:14.874Z,17.83
2023-01-26T04:26:14.839Z,17.82
2023-01-26T04:27:14.863Z,17.74
2023-01-26T04:28:14.795Z,17.88
2023-01-26T04:29:14.760Z,17.88
2023-01-26T04:30:14.749Z,17.89
2023-01-26T04:31:14.770Z,17.91
2023-01-26T04:32:14.680Z,17.77
2023-01-26T04:33:14.663Z,17.70
2023-01-26T04:34:14.629Z,17.72
2023-01-26T04:35:14.600Z,17.70
2023-01-26T04:36:14.565Z,17.67
2023-01-26T04:37:14.550Z,17.66
2023-01-26T04:38:14.529Z,17.77
2023-01-26T04:39:14.500Z,17.68
2023-01-26T04:40:14.776Z,17.70
2023-01-26T04:41:14.471Z,17.73
2023-01-26T04:42:14.434Z,17.60
2023-01-26T04:43:14.417Z,17.52
2023-01-26T04:44:14.376Z,17.59
2023-01-26T04:45:14.353Z,17.55
2023-01-26T04:46:14.344Z,17.47
2023-01-26T04:47:14.303Z,17.44
2023-01-26T04:48:14.287Z,17.50
2023-01-26T04:49:14.279Z,17.59
2023-01-26T04:50:14.593Z,17.61
2023-01-26T04:51:14.219Z,17.55
2023-01-26T04:52:14.195Z,17.45
2023-01-26T04:53:14.195Z,17.46
2023-01-26T04:54:14.152Z,17.41
2023-01-26T04:55:14.124Z,17.32
2023-01-26T04:56:14.082Z,17.27
2023-01-26T04:57:14.053Z,17.32
2023-01-26T04:58:14.019Z,17.34
2023-01-26T04:59:13.995Z,17.36
2023-01-26T05:00:14.141Z,17.38
2023-01-26T05:01:13.968Z,17.32
2023-01-26T05:02:13.951Z,17.30
2023-01-26T05:03:13.930Z,17.33
2023-01-26T05:04:13.927Z,17.32
2023-01-26T05:05:13.860Z,17.31
2023-01-26T05:06:13.859Z,17.29
2023-01-26T05:07:13.817Z,17.31
2023-01-26T05:08:13.825Z,17.26
2023-01-26T05:09:13.771Z,17.31
2023-01-26T05:10:15.764Z,17.34
2023-01-26T05:11:13.731Z,17.38
2023-01-26T05:12:13.705Z,17.33
2023-01-26T05:13:13.730Z,17.29
2023-01-26T05:14:13.675Z,17.26
2023-01-26T05:15:13.635Z,17.11
2023-01-26T05:16:13.661Z,17.15
2023-01-26T05:17:13.599Z,17.19
2023-01-26T05:18:13.587Z,17.19
2023-01-26T05:19:13.573Z,17.20
2023-01-26T05:20:13.820Z,17.19
2023-01-26T05:21:13.529Z,17.07
2023-01-26T05:22:13.511Z,17.08
2023-01-26T05:23:13.481Z,17.11
2023-01-26T05:24:13.522Z,17.02
2023-01-26T05:25:13.441Z,16.97
2023-01-26T05:26:13.414Z,17.05
2023-01-26T05:27:13.388Z,17.00
2023-01-26T05:28:13.365Z,17.01
2023-01-26T05:29:13.363Z,17.05
2023-01-26T05:30:14.760Z,17.04
2023-01-26T05:31:13.287Z,17.08
2023-01-26T05:32:13.271Z,17.03
2023-01-26T05:33:13.253Z,17.09
2023-01-26T05:34:13.230Z,16.95
2023-01-26T05:35:13.194Z,16.98
2023-01-26T05:36:13.167Z,16.99
2023-01-26T05:37:15.001Z,17.09
2023-01-26T05:38:13.129Z,16.87
2023-01-26T05:39:13.094Z,16.98
2023-01-26T05:40:13.359Z,16.94
2023-01-26T05:41:13.054Z,16.94
2023-01-26T05:42:13.038Z,16.94
2023-01-26T05:43:13.023Z,16.89
2023-01-26T05:44:12.989Z,16.78
2023-01-26T05:45:12.968Z,16.79
2023-01-26T05:46:13.010Z,16.82
2023-01-26T05:47:12.915Z,16.84
2023-01-26T05:48:12.887Z,16.79
2023-01-26T05:49:12.873Z,16.84
2023-01-26T05:50:13.148Z,16.81
2023-01-26T05:51:12.805Z,16.82
2023-01-26T05:52:12.789Z,16.73
2023-01-26T05:53:12.778Z,16.76
2023-01-26T05:54:12.755Z,16.72
2023-01-26T05:55:12.712Z,16.64
2023-01-26T05:56:12.692Z,16.72
2023-01-26T05:57:12.694Z,16.60
2023-01-26T05:58:12.644Z,16.64
2023-01-26T05:59:12.615Z,16.71
2023-01-26T06:00:12.908Z,16.72
2023-01-26T06:01:12.561Z,16.68
2023-01-26T06:02:12.570Z,16.68
2023-01-26T06:03:12.527Z,16.69
2023-01-26T06:04:12.513Z,16.60
2023-01-26T06:05:12.463Z,16.65
2023-01-26T06:06:12.444Z,16.63
2023-01-26T06:07:12.424Z,16.56
2023-01-26T06:08:12.404Z,16.92
2023-01-26T06:09:12.378Z,17.36
2023-01-26T06:10:12.723Z,17.78
2023-01-26T06:11:12.338Z,17.61
2023-01-26T06:12:12.304Z,17.51
2023-01-26T06:13:12.295Z,17.37
2023-01-26T06:14:12.261Z,17.45
2023-01-26T06:15:12.237Z,17.57
2023-01-26T06:16:12.206Z,17.59
2023-01-26T06:17:12.193Z,17.57
2023-01-26T06:18:12.152Z,17.69
2023-01-26T06:19:12.156Z,17.75
2023-01-26T06:20:12.366Z,17.82
2023-01-26T06:21:12.076Z,17.90
2023-01-26T06:22:12.063Z,17.99
2023-01-26T06:23:12.047Z,18.05
2023-01-26T06:24:12.055Z,18.16
2023-01-26T06:25:11.978Z,18.20
2023-01-26T06:26:11.955Z,18.28
2023-01-26T06:27:11.923Z,18.35
2023-01-26T06:28:11.896Z,18.42
2023-01-26T06:29:11.884Z,18.43
2023-01-26T06:30:12.166Z,18.52
2023-01-26T06:31:11.946Z,18.60
2023-01-26T06:32:11.804Z,18.65
2023-01-26T06:33:11.768Z,19.08
2023-01-26T06:34:11.748Z,19.74
2023-01-26T06:35:11.719Z,20.65
2023-01-26T06:36:11.694Z,21.06
2023-01-26T06:37:11.688Z,21.82
2023-01-26T06:38:11.640Z,22.55
2023-01-26T06:39:11.684Z,22.84
2023-01-26T06:40:12.018Z,22.90
2023-01-26T06:41:11.542Z,23.08
2023-01-26T06:42:11.509Z,23.29
2023-01-26T06:43:11.478Z,23.45
2023-01-26T06:44:11.492Z,23.61
2023-01-26T06:45:11.419Z,23.81
2023-01-26T06:46:11.483Z,23.88
2023-01-26T06:47:11.343Z,23.99
2023-01-26T06:48:11.319Z,23.86
2023-01-26T06:49:11.285Z,23.94
2023-01-26T06:50:11.490Z,23.57
2023-01-26T06:51:11.240Z,24.36
2023-01-26T06:52:11.205Z,23.79
2023-01-26T06:53:11.171Z,23.74
2023-01-26T06:54:11.140Z,24.38
2023-01-26T06:55:11.110Z,24.24
2023-01-26T06:56:11.069Z,24.15
2023-01-26T06:57:11.051Z,24.46
2023-01-26T06:58:11.110Z,24.30
2023-01-26T06:59:10.982Z,24.42
2023-01-26T07:00:11.224Z,24.35
2023-01-26T07:01:11.019Z,24.55
2023-01-26T07:02:11.110Z,24.60
2023-01-26T07:03:10.936Z,24.70
2023-01-26T07:04:11.035Z,24.60
2023-01-26T07:05:12.015Z,24.58
2023-01-26T07:06:10.717Z,24.53
2023-01-26T07:07:10.684Z,24.54
2023-01-26T07:08:10.663Z,24.87
2023-01-26T07:09:10.633Z,24.58
2023-01-26T07:10:11.101Z,24.68
2023-01-26T07:11:10.540Z,24.14
2023-01-26T07:12:10.530Z,24.05
2023-01-26T07:13:10.491Z,24.13
2023-01-26T07:14:10.456Z,24.39
2023-01-26T07:15:10.439Z,24.28
2023-01-26T07:16:10.455Z,24.01
2023-01-26T07:17:10.338Z,24.12
2023-01-26T07:18:10.317Z,24.21
2023-01-26T07:19:10.319Z,24.01
2023-01-26T07:20:10.715Z,23.85
2023-01-26T07:21:10.222Z,23.76
2023-01-26T07:22:10.207Z,24.04
2023-01-26T07:23:10.397Z,24.05
2023-01-26T07:24:10.145Z,24.08
2023-01-26T07:25:10.119Z,24.17
2023-01-26T07:26:10.047Z,24.04
2023-01-26T07:27:10.062Z,24.10
2023-01-26T07:28:10.018Z,23.93
2023-01-26T07:29:10.040Z,24.16
2023-01-26T07:30:11.150Z,24.00
2023-01-26T07:31:10.027Z,23.91
2023-01-26T07:32:09.850Z,23.93
2023-01-26T07:33:09.821Z,24.02
2023-01-26T07:34:09.788Z,24.13
2023-01-26T07:35:09.797Z,24.16
2023-01-26T07:36:09.711Z,24.32
2023-01-26T07:37:20.859Z,24.30
2023-01-26T07:38:09.638Z,24.24
2023-01-26T07:39:10.904Z,24.25
2023-01-26T07:40:10.169Z,24.42
2023-01-26T07:41:09.544Z,24.42
2023-01-26T07:42:09.509Z,24.57
2023-01-26T07:43:09.465Z,24.72
2023-01-26T07:44:09.461Z,24.97
2023-01-26T07:45:09.421Z,24.92
2023-01-26T07:46:09.397Z,25.25
2023-01-26T07:47:09.347Z,24.91
2023-01-26T07:48:09.298Z,24.93
2023-01-26T07:49:09.287Z,24.62
2023-01-26T07:50:09.543Z,24.52
2023-01-26T07:51:09.230Z,23.27
2023-01-26T07:52:09.213Z,19.60
2023-01-26T07:53:09.152Z,17.66
2023-01-26T07:54:09.113Z,17.57
2023-01-26T07:55:09.093Z,18.61
2023-01-26T07:56:09.074Z,19.89
2023-01-26T07:57:09.065Z,20.19
2023-01-26T07:58:09.005Z,20.30
2023-01-26T07:59:08.988Z,20.31
2023-01-26T08:00:09.272Z,20.41
2023-01-26T08:01:08.941Z,20.69
2023-01-26T08:02:08.886Z,20.96
2023-01-26T08:03:08.928Z,21.16
2023-01-26T08:04:08.845Z,21.30
2023-01-26T08:05:08.807Z,21.46
2023-01-26T08:06:11.779Z,21.51
2023-01-26T08:07:08.746Z,21.69
2023-01-26T08:08:08.717Z,21.74
2023-01-26T08:09:08.712Z,21.81
2023-01-26T08:10:08.716Z,21.82
2023-01-26T08:11:08.632Z,21.89
2023-01-26T08:12:08.627Z,21.93
2023-01-26T08:13:08.560Z,22.00
2023-01-26T08:14:08.540Z,22.15
2023-01-26T08:15:08.500Z,22.28
2023-01-26T08:16:08.491Z,22.40
2023-01-26T08:17:08.437Z,22.44
2023-01-26T08:18:08.391Z,22.38
2023-01-26T08:19:08.358Z,22.51
2023-01-26T08:20:08.409Z,22.65
2023-01-26T08:21:08.325Z,22.75
2023-01-26T08:22:08.255Z,22.71
2023-01-26T08:23:08.235Z,22.65
2023-01-26T08:24:08.251Z,22.77
2023-01-26T08:25:08.165Z,22.82
2023-01-26T08:26:08.167Z,22.83
2023-01-26T08:27:08.100Z,22.91
2023-01-26T08:28:08.047Z,22.92
2023-01-26T08:29:08.255Z,22.82
2023-01-26T08:30:08.025Z,22.87
2023-01-26T08:31:07.952Z,23.08
2023-01-26T08:32:07.915Z,23.45
2023-01-26T08:33:07.852Z,23.66
2023-01-26T08:34:07.809Z,23.45
2023-01-26T08:35:07.785Z,23.50
2023-01-26T08:36:07.755Z,23.47
2023-01-26T08:37:07.718Z,23.49
2023-01-26T08:38:07.679Z,23.55
2023-01-26T08:39:07.647Z,24.19
2023-01-26T08:40:07.610Z,24.49
2023-01-26T08:41:07.577Z,24.05
2023-01-26T08:42:07.561Z,24.03
2023-01-26T08:43:07.521Z,23.86
2023-01-26T08:44:07.469Z,23.43
2023-01-26T08:45:07.420Z,23.60
2023-01-26T08:46:07.407Z,23.59
2023-01-26T08:47:07.342Z,23.21
2023-01-26T08:48:07.305Z,23.07
2023-01-26T08:49:07.264Z,22.84
2023-01-26T08:50:07.237Z,22.74
2023-01-26T08:51:07.189Z,22.74
2023-01-26T08:52:07.147Z,22.85
2023-01-26T08:53:07.101Z,22.96
2023-01-26T08:54:07.053Z,22.80
2023-01-26T08:55:07.022Z,22.53
2023-01-26T08:56:06.980Z,22.38
2023-01-26T08:57:06.950Z,22.30
2023-01-26T08:58:06.897Z,22.27
2023-01-26T08:59:06.857Z,22.39
2023-01-26T09:00:06.803Z,22.38
2023-01-26T09:01:06.799Z,22.31
2023-01-26T09:02:06.813Z,22.04
2023-01-26T09:03:06.793Z,21.87
2023-01-26T09:04:06.621Z,21.89
2023-01-26T09:05:06.593Z,21.97
2023-01-26T09:06:06.551Z,22.11
2023-01-26T09:07:06.517Z,22.06
2023-01-26T09:08:06.470Z,21.92
2023-01-26T09:09:06.430Z,21.91
2023-01-26T09:10:06.380Z,21.83
2023-01-26T09:11:06.362Z,21.92
2023-01-26T09:12:06.301Z,21.95
2023-01-26T09:13:06.261Z,21.88
2023-01-26T09:14:06.217Z,21.62
2023-01-26T09:15:06.172Z,21.48
2023-01-26T09:16:06.139Z,21.55
2023-01-26T09:17:06.085Z,21.61
2023-01-26T09:18:06.050Z,21.70
2023-01-26T09:19:06.015Z,21.83
2023-01-26T09:20:05.962Z,21.80
2023-01-26T09:21:05.925Z,21.81
2023-01-26T09:22:05.876Z,21.78
2023-01-26T09:23:05.828Z,21.82
2023-01-26T09:24:05.822Z,21.82
2023-01-26T09:25:05.758Z,21.73
2023-01-26T09:26:05.688Z,21.80
2023-01-26T09:27:05.655Z,21.73
2023-01-26T09:28:05.771Z,21.77
2023-01-26T09:29:05.547Z,21.67
2023-01-26T09:30:05.565Z,21.72
2023-01-26T09:31:05.568Z,21.67
2023-01-26T09:32:05.406Z,21.66
2023-01-26T09:33:05.373Z,21.72
2023-01-26T09:34:05.335Z,21.72
2023-01-26T09:35:05.275Z,21.75
2023-01-26T09:36:05.252Z,21.75
2023-01-26T09:37:05.192Z,21.73
2023-01-26T09:38:05.160Z,21.71
2023-01-26T09:39:05.112Z,21.64
2023-01-26T09:40:05.062Z,21.54
2023-01-26T09:41:05.021Z,21.48
2023-01-26T09:42:04.982Z,21.51
2023-01-26T09:43:04.936Z,21.54
2023-01-26T09:44:04.901Z,21.52
2023-01-26T09:45:04.856Z,21.47
2023-01-26T09:46:04.871Z,21.45
2023-01-26T09:47:04.790Z,21.42
2023-01-26T09:48:04.729Z,21.48
2023-01-26T09:49:04.709Z,21.45
2023-01-26T09:50:04.674Z,21.47
2023-01-26T09:51:04.599Z,21.50
2023-01-26T09:52:04.568Z,21.33
2023-01-26T09:53:04.528Z,21.50
2023-01-26T09:54:04.496Z,21.58
2023-01-26T09:55:04.440Z,21.59
2023-01-26T09:56:04.379Z,21.67
2023-01-26T09:57:04.344Z,21.66
2023-01-26T09:58:04.288Z,21.71
2023-01-26T09:59:04.247Z,21.79
2023-01-26T10:00:04.218Z,21.84
2023-01-26T10:01:04.251Z,21.79
2023-01-26T10:02:04.131Z,21.88
2023-01-26T10:03:04.130Z,21.88
2023-01-26T10:04:04.042Z,21.89
2023-01-26T10:05:03.985Z,21.91
2023-01-26T10:06:03.949Z,21.92
2023-01-26T10:07:03.917Z,21.94
2023-01-26T10:08:03.846Z,21.90
2023-01-26T10:09:03.835Z,21.93
2023-01-26T10:10:03.771Z,21.93
2023-01-26T10:11:03.715Z,21.93
2023-01-26T10:12:03.681Z,21.97
2023-01-26T10:13:03.622Z,21.98
2023-01-26T10:14:03.567Z,22.00
2023-01-26T10:15:03.522Z,21.96
2023-01-26T10:16:03.516Z,21.99
2023-01-26T10:17:03.441Z,22.00
2023-01-26T10:18:03.431Z,22.02
2023-01-26T10:19:03.346Z,21.98
2023-01-26T10:20:03.305Z,22.00
2023-01-26T10:21:03.257Z,21.99
2023-01-26T10:22:03.210Z,21.98
2023-01-26T10:23:03.187Z,21.91
2023-01-26T10:24:03.264Z,21.93
2023-01-26T10:25:03.077Z,21.93
2023-01-26T10:26:03.031Z,21.92
2023-01-26T10:27:02.993Z,21.91
2023-01-26T10:28:02.952Z,21.93
2023-01-26T10:29:02.951Z,21.95
2023-01-26T10:30:02.865Z,21.97
2023-01-26T10:31:02.897Z,21.99
2023-01-26T10:32:02.771Z,21.99
2023-01-26T10:33:02.722Z,22.00
2023-01-26T10:34:02.679Z,22.00
2023-01-26T10:35:02.648Z,22.01
2023-01-26T10:36:02.587Z,21.99
2023-01-26T10:37:02.551Z,22.02
2023-01-26T10:38:02.514Z,21.98
2023-01-26T10:39:02.465Z,22.00
2023-01-26T10:40:02.420Z,21.95
2023-01-26T10:41:02.368Z,21.94
2023-01-26T10:42:02.322Z,21.91
2023-01-26T10:43:02.302Z,21.86
2023-01-26T10:44:02.239Z,21.92
2023-01-26T10:45:02.223Z,21.99
2023-01-26T10:46:02.212Z,22.03
2023-01-26T10:47:02.141Z,22.08
2023-01-26T10:48:02.093Z,22.08
2023-01-26T10:49:02.034Z,22.08
2023-01-26T10:50:01.968Z,22.01
2023-01-26T10:51:02.476Z,21.91
2023-01-26T10:52:01.862Z,21.76
2023-01-26T10:53:01.821Z,21.63
2023-01-26T10:54:01.769Z,21.52
2023-01-26T10:55:01.734Z,21.42
2023-01-26T10:56:01.672Z,21.32
2023-01-26T10:57:01.622Z,21.26
2023-01-26T10:58:01.612Z,21.17
2023-01-26T10:59:01.553Z,21.10
2023-01-26T11:00:01.536Z,21.01
2023-01-26T11:01:01.438Z,20.95
2023-01-26T11:02:01.396Z,20.87
2023-01-26T11:03:01.378Z,20.77
2023-01-26T11:04:01.337Z,20.72
2023-01-26T11:05:01.218Z,20.65
2023-01-26T11:06:01.178Z,20.59
2023-01-26T11:07:01.161Z,20.55
2023-01-26T11:08:01.072Z,20.51
2023-01-26T11:09:01.046Z,20.49
2023-01-26T11:10:00.964Z,20.45
2023-01-26T11:11:00.925Z,20.40
2023-01-26T11:12:00.854Z,20.35
2023-01-26T11:13:00.802Z,20.30
2023-01-26T11:14:00.766Z,20.29
2023-01-26T11:15:00.692Z,20.29
2023-01-26T11:16:00.779Z,20.28
2023-01-26T11:17:00.557Z,20.23
2023-01-26T11:18:00.491Z,20.19
2023-01-26T11:19:00.491Z,20.14
2023-01-26T11:20:00.383Z,20.10
2023-01-26T11:21:00.315Z,20.07
2023-01-26T11:22:00.254Z,20.03
2023-01-26T11:23:00.195Z,19.98
2023-01-26T11:24:00.215Z,19.94
2023-01-26T11:25:00.056Z,19.89
2023-01-26T11:25:59.989Z,19.85
2023-01-26T11:26:59.914Z,19.82
2023-01-26T11:27:59.850Z,19.79
2023-01-26T11:28:59.784Z,19.74
2023-01-26T11:29:59.714Z,19.72
2023-01-26T11:30:59.713Z,19.70
2023-01-26T11:31:59.580Z,19.66
2023-01-26T11:32:59.516Z,19.64
2023-01-26T11:33:59.452Z,19.61
2023-01-26T11:34:59.380Z,19.58
2023-01-26T11:35:59.297Z,19.56
2023-01-26T11:36:59.232Z,19.54
2023-01-26T11:37:59.159Z,19.51
2023-01-26T11:38:59.087Z,19.51
2023-01-26T11:39:59.046Z,19.48
2023-01-26T11:40:58.975Z,19.47
2023-01-26T11:41:58.886Z,19.46
2023-01-26T11:42:58.819Z,19.47
2023-01-26T11:43:58.749Z,19.46
2023-01-26T11:44:58.685Z,19.47
2023-01-26T11:45:58.662Z,19.48
2023-01-26T11:46:58.523Z,19.47
2023-01-26T11:47:58.455Z,19.63
2023-01-26T11:48:58.395Z,20.20
2023-01-26T11:49:58.329Z,19.92
2023-01-26T11:50:58.258Z,20.23
2023-01-26T11:51:58.222Z,20.59
2023-01-26T11:52:58.154Z,20.60
2023-01-26T11:53:58.100Z,20.53
2023-01-26T11:54:58.071Z,20.78
2023-01-26T11:55:58.007Z,20.79
2023-01-26T11:56:57.932Z,20.80
2023-01-26T11:57:57.895Z,20.77
2023-01-26T11:58:57.887Z,20.80
2023-01-26T11:59:57.813Z,20.94
2023-01-26T12:00:57.733Z,21.01
2023-01-26T12:01:57.771Z,20.96
2023-01-26T12:02:57.710Z,20.89
2023-01-26T12:03:57.583Z,20.90
2023-01-26T12:04:57.539Z,20.87
2023-01-26T12:05:57.502Z,20.87
2023-01-26T12:06:57.428Z,20.95
2023-01-26T12:07:57.398Z,20.83
2023-01-26T12:08:57.358Z,20.81
2023-01-26T12:09:57.292Z,20.78
2023-01-26T12:10:57.242Z,20.75
2023-01-26T12:11:57.192Z,20.65
2023-01-26T12:12:57.155Z,20.64
2023-01-26T12:13:57.130Z,20.67
2023-01-26T12:14:57.060Z,20.64
2023-01-26T12:15:57.038Z,20.60
2023-01-26T12:17:08.044Z,20.57
2023-01-26T12:17:57.925Z,20.51
2023-01-26T12:19:10.165Z,20.48
2023-01-26T12:19:57.864Z,20.53
2023-01-26T12:20:56.796Z,20.57
2023-01-26T12:21:56.750Z,20.63
2023-01-26T12:22:56.701Z,20.57
2023-01-26T12:23:56.653Z,20.63
2023-01-26T12:25:18.148Z,20.50
2023-01-26T12:25:57.624Z,20.47
2023-01-26T12:26:56.497Z,20.44
2023-01-26T12:27:56.451Z,20.48
2023-01-26T12:28:56.404Z,20.49
2023-01-26T12:29:56.380Z,20.50
2023-01-26T12:30:56.399Z,20.48
2023-01-26T12:31:56.268Z,20.09
2023-01-26T12:32:56.245Z,19.70
2023-01-26T12:33:56.183Z,19.48
2023-01-26T12:34:56.115Z,19.25
2023-01-26T12:35:56.074Z,18.99
2023-01-26T12:36:56.012Z,18.63
2023-01-26T12:38:05.668Z,18.39
2023-01-26T12:38:56.897Z,18.10
2023-01-26T12:39:55.839Z,17.83
2023-01-26T12:40:55.791Z,17.65
2023-01-26T12:41:55.717Z,17.49
2023-01-26T12:42:55.649Z,17.86
2023-01-26T12:43:55.593Z,17.63
2023-01-26T12:44:55.528Z,17.35
2023-01-26T12:45:55.496Z,17.33
2023-01-26T12:46:55.406Z,17.23
2023-01-26T12:47:55.343Z,17.23
2023-01-26T12:48:55.279Z,17.04
2023-01-26T12:49:55.350Z,16.94
2023-01-26T12:50:55.146Z,16.96
2023-01-26T12:51:55.090Z,17.17